Main page
METAR-TAF:

METAR-TAF

Airports :

Yekaterinburg, Russia

Koltsovo Airport

latitude: 56-50N, longitude: 060-38E, elevation: 237 m

Current weather observation

The report was made 35 minutes ago, at 16:00 UTC
Wind 2 kt from variable directions
Temperature -9°C
Humidity 92%
Pressure 1017 hPa
Visibility: 0900 m
freezing fog

METAR: USSS 241600Z VRB01MPS 2700 0900W FZFG NSC M09/M10 Q1017 R26R/290039 TEMPO 0300 FZFG VV002 RMK QFE742/0990

Time: 21:35 (16:35 UTC)

Forecast

The report was made 2 hours and 4 minutes ago, at 14:31 UTC
Forecast valid from 24 at 15 UTC to 25 at 15 UTC
Wind 6 kt from the East/Northeast
Visibility: 2100 m
Scattered clouds at a height of 700 ft
mist
Temporary
from 24 at 15 UTC to 25 at 03 UTC
Visibility: 0300 m
at a height of 200 ft
freezing drizzle, freezing fog

TAF: USSS 241431Z 2415/2515 06003MPS 2100 BR SCT007 TEMPO 2415/2503 0300 FZDZ FZFG VV002

Weather observations and forecasts of more than 4000 airports (METAR and TAF reports).

The available stations are represented by yellow and red dots on the map.

Hover mouse over dot to see the name of the station.

Then click to see weather observations and forecasts.

To change the map : click on the green buttons with a black cross to zoom in, on the green button with a dash to zoom out, or on the green arrows for adjacent maps.


METAR-TAF: